createdAt,value
2017-04-22T00:00:33.799Z,42.88
2017-04-22T00:01:39.324Z,39.68
2017-04-22T00:02:44.971Z,40.58
2017-04-22T00:03:51.331Z,38.35
2017-04-22T00:04:56.140Z,38.12
2017-04-22T00:06:01.876Z,36.93
2017-04-22T00:07:08.094Z,37.22
2017-04-22T00:08:12.913Z,36.63
2017-04-22T00:09:18.359Z,39.13
2017-04-22T00:10:23.721Z,37.30
2017-04-22T00:11:29.324Z,38.68
2017-04-22T00:12:35.687Z,36.07
2017-04-22T00:13:42.384Z,36.43
2017-04-22T00:14:47.314Z,35.93
2017-04-22T00:15:52.725Z,36.40
2017-04-22T00:16:58.472Z,37.85
2017-04-22T00:18:03.903Z,36.38
2017-04-22T00:19:09.442Z,37.60
2017-04-22T00:20:14.789Z,42.00
2017-04-22T00:21:20.220Z,37.65
2017-04-22T00:22:25.740Z,37.80
2017-04-22T00:23:31.258Z,39.42
2017-04-22T00:24:37.566Z,39.13
2017-04-22T00:25:43.838Z,38.95
2017-04-22T00:26:48.770Z,37.15
2017-04-22T00:27:54.322Z,37.02
2017-04-22T00:29:00.571Z,39.32
2017-04-22T00:30:06.242Z,36.32
2017-04-22T00:31:11.050Z,38.65
2017-04-22T00:32:16.592Z,36.35
2017-04-22T00:33:22.921Z,37.48
2017-04-22T00:34:27.672Z,40.30
2017-04-22T00:35:34.050Z,38.60
2017-04-22T00:36:38.760Z,37.92
2017-04-22T00:37:44.386Z,39.15
2017-04-22T00:38:49.985Z,40.35
2017-04-22T00:39:54.717Z,39.90
2017-04-22T00:41:00.274Z,40.43
2017-04-22T00:42:05.937Z,37.68
2017-04-22T00:43:11.319Z,38.88
2017-04-22T00:44:16.807Z,37.45
2017-04-22T00:45:23.112Z,38.78
2017-04-22T00:46:28.042Z,36.43
2017-04-22T00:47:34.472Z,34.35
2017-04-22T00:48:39.896Z,38.45
2017-04-22T00:49:44.645Z,34.08
2017-04-22T00:50:50.113Z,33.55
2017-04-22T00:51:54.940Z,35.68
2017-04-22T00:53:00.556Z,35.77
2017-04-22T00:54:06.990Z,34.03
2017-04-22T00:55:12.520Z,34.37
2017-04-22T00:56:17.999Z,33.50
2017-04-22T00:57:23.645Z,31.73
2017-04-22T00:58:29.157Z,32.62
2017-04-22T00:59:36.001Z,31.08
2017-04-22T01:00:41.503Z,31.90
2017-04-22T01:01:47.213Z,31.23
2017-04-22T01:02:53.713Z,31.28
2017-04-22T01:03:59.364Z,30.47
2017-04-22T01:05:04.957Z,32.00
2017-04-22T01:06:09.730Z,30.23
2017-04-22T01:07:15.344Z,30.85
2017-04-22T01:08:21.008Z,29.08
2017-04-22T01:09:26.464Z,29.68
2017-04-22T01:10:31.904Z,29.73
2017-04-22T01:11:38.132Z,28.97
2017-04-22T01:12:44.590Z,28.32
2017-04-22T01:13:50.001Z,27.47
2017-04-22T01:14:54.822Z,33.93
2017-04-22T01:16:01.246Z,27.60
2017-04-22T01:17:06.938Z,26.65
2017-04-22T01:18:11.833Z,26.60
2017-04-22T01:19:18.350Z,26.35
2017-04-22T01:20:23.136Z,27.83
2017-04-22T01:21:28.520Z,28.37
2017-04-22T01:22:34.111Z,26.28
2017-04-22T01:23:40.356Z,25.97
2017-04-22T01:24:46.089Z,25.75
2017-04-22T01:25:52.374Z,25.95
2017-04-22T01:26:57.076Z,25.52
2017-04-22T01:28:02.740Z,27.00
2017-04-22T01:29:09.060Z,29.07
2017-04-22T01:30:13.962Z,25.98
2017-04-22T01:31:19.284Z,25.12
2017-04-22T01:32:24.024Z,27.47
2017-04-22T01:33:29.704Z,26.50
2017-04-22T01:34:35.076Z,25.30
2017-04-22T01:35:39.876Z,25.20
2017-04-22T01:36:46.182Z,26.52
2017-04-22T01:37:50.996Z,27.42
2017-04-22T01:38:57.493Z,26.08
2017-04-22T01:40:02.365Z,29.92
2017-04-22T01:41:09.737Z,24.32
2017-04-22T01:42:14.571Z,25.25
2017-04-22T01:43:20.037Z,24.70
2017-04-22T01:44:25.579Z,24.95
2017-04-22T01:45:30.994Z,23.82
2017-04-22T01:46:36.665Z,23.65
2017-04-22T01:47:42.877Z,22.67
2017-04-22T01:48:47.805Z,26.25
2017-04-22T01:49:53.245Z,23.08
2017-04-22T01:50:58.861Z,23.20
2017-04-22T01:52:04.453Z,23.50
2017-04-22T01:53:10.057Z,24.88
2017-04-22T01:54:15.511Z,22.00
2017-04-22T01:55:21.167Z,22.52
2017-04-22T01:56:26.616Z,20.97
2017-04-22T01:57:32.281Z,23.12
2017-04-22T01:58:38.641Z,20.67
2017-04-22T01:59:44.317Z,20.77
2017-04-22T02:00:49.781Z,19.23
2017-04-22T02:01:54.617Z,18.40
2017-04-22T02:03:00.129Z,17.50
2017-04-22T02:04:06.374Z,20.40
2017-04-22T02:05:11.206Z,18.93
2017-04-22T02:06:16.694Z,18.02
2017-04-22T02:07:23.076Z,17.00
2017-04-22T02:08:29.549Z,16.87
2017-04-22T02:09:35.252Z,16.07
2017-04-22T02:10:40.900Z,17.48
2017-04-22T02:11:46.452Z,16.52
2017-04-22T02:12:51.956Z,17.68
2017-04-22T02:13:57.491Z,16.32
2017-04-22T02:15:03.022Z,15.67
2017-04-22T02:16:09.525Z,15.68
2017-04-22T02:17:14.396Z,18.35
2017-04-22T02:18:19.782Z,19.00
2017-04-22T02:19:25.465Z,17.47
2017-04-22T02:20:31.930Z,16.62
2017-04-22T02:21:36.657Z,16.42
2017-04-22T02:22:42.185Z,15.02
2017-04-22T02:23:47.713Z,15.88
2017-04-22T02:24:53.971Z,17.50
2017-04-22T02:25:59.630Z,16.12
2017-04-22T02:27:05.198Z,15.63
2017-04-22T02:28:10.869Z,15.37
2017-04-22T02:29:16.357Z,14.82
2017-04-22T02:30:22.637Z,15.58
2017-04-22T02:31:27.420Z,16.93
2017-04-22T02:32:33.034Z,15.70
2017-04-22T02:33:38.551Z,14.23
2017-04-22T02:34:43.324Z,15.30
2017-04-22T02:35:48.957Z,17.03
2017-04-22T02:36:55.121Z,15.57
2017-04-22T02:37:59.954Z,16.28
2017-04-22T02:39:04.936Z,14.90
2017-04-22T02:40:10.159Z,14.53
2017-04-22T02:41:17.547Z,17.40
2017-04-22T02:42:22.388Z,18.62
2017-04-22T02:43:27.927Z,16.78
2017-04-22T02:44:33.780Z,16.92
2017-04-22T02:45:38.981Z,16.87
2017-04-22T02:46:44.550Z,16.10
2017-04-22T02:47:50.841Z,17.33
2017-04-22T02:48:56.422Z,17.60
2017-04-22T02:50:01.953Z,17.22
2017-04-22T02:51:06.737Z,18.30
2017-04-22T02:52:12.272Z,21.38
2017-04-22T02:53:17.741Z,16.25
2017-04-22T02:54:23.372Z,20.37
2017-04-22T02:55:28.792Z,17.78
2017-04-22T02:56:34.412Z,18.98
2017-04-22T02:57:40.157Z,17.87
2017-04-22T02:58:45.596Z,18.88
2017-04-22T02:59:51.139Z,18.42
2017-04-22T03:00:56.670Z,18.65
2017-04-22T03:02:02.911Z,19.15
2017-04-22T03:03:08.682Z,19.32
2017-04-22T03:04:14.192Z,20.07
2017-04-22T03:05:19.733Z,19.03
2017-04-22T03:06:25.288Z,19.70
2017-04-22T03:07:30.919Z,19.97
2017-04-22T03:08:38.103Z,18.65
2017-04-22T03:09:42.978Z,21.47
2017-04-22T03:10:48.634Z,20.53
2017-04-22T03:11:54.041Z,17.90
2017-04-22T03:12:59.625Z,19.00
2017-04-22T03:14:05.112Z,19.38
2017-04-22T03:15:10.646Z,19.70
2017-04-22T03:16:16.912Z,24.15
2017-04-22T03:17:21.753Z,18.37
2017-04-22T03:18:27.184Z,21.62
2017-04-22T03:19:32.684Z,18.00
2017-04-22T03:20:39.731Z,19.85
2017-04-22T03:21:45.509Z,20.30
2017-04-22T03:22:50.321Z,19.55
2017-04-22T03:23:55.861Z,19.93
2017-04-22T03:25:01.608Z,21.08
2017-04-22T03:26:07.182Z,20.30
2017-04-22T03:27:12.781Z,19.37
2017-04-22T03:28:18.254Z,19.82
2017-04-22T03:29:24.484Z,20.03
2017-04-22T03:30:29.414Z,20.37
2017-04-22T03:31:35.150Z,23.58
2017-04-22T03:32:41.334Z,21.40
2017-04-22T03:33:47.113Z,21.20
2017-04-22T03:34:52.768Z,22.05
2017-04-22T03:35:58.516Z,20.17
2017-04-22T03:37:03.945Z,19.73
2017-04-22T03:38:09.502Z,21.47
2017-04-22T03:39:14.998Z,22.45
2017-04-22T03:40:20.604Z,20.35
2017-04-22T03:41:27.705Z,19.78
2017-04-22T03:42:32.539Z,18.58
2017-04-22T03:43:38.195Z,20.52
2017-04-22T03:44:43.673Z,23.27
2017-04-22T03:45:49.947Z,24.80
2017-04-22T03:46:54.974Z,23.37
2017-04-22T03:48:01.356Z,20.12
2017-04-22T03:49:06.833Z,23.30
2017-04-22T03:50:11.749Z,21.15
2017-04-22T03:51:17.385Z,21.02
2017-04-22T03:52:22.874Z,21.70
2017-04-22T03:53:28.328Z,20.95
2017-04-22T03:54:33.791Z,25.38
2017-04-22T03:55:39.373Z,23.60
2017-04-22T03:56:45.863Z,20.70
2017-04-22T03:57:51.402Z,21.45
2017-04-22T03:58:56.959Z,23.15
2017-04-22T04:00:02.668Z,22.02
2017-04-22T04:01:08.208Z,22.45
2017-04-22T04:02:13.712Z,22.35
2017-04-22T04:03:19.412Z,21.58
2017-04-22T04:04:25.013Z,20.50
2017-04-22T04:05:31.272Z,24.37
2017-04-22T04:06:35.986Z,26.20
2017-04-22T04:07:42.392Z,21.33
2017-04-22T04:08:48.012Z,19.68
2017-04-22T04:09:52.765Z,23.03
2017-04-22T04:10:58.980Z,22.40
2017-04-22T04:12:03.889Z,24.40
2017-04-22T04:13:09.397Z,22.28
2017-04-22T04:14:14.907Z,20.55
2017-04-22T04:15:21.245Z,20.43
2017-04-22T04:16:26.102Z,22.22
2017-04-22T04:17:31.478Z,24.13
2017-04-22T04:18:37.006Z,20.27
2017-04-22T04:19:42.484Z,20.40
2017-04-22T04:20:47.908Z,20.03
2017-04-22T04:21:53.428Z,20.07
2017-04-22T04:22:59.045Z,19.72
2017-04-22T04:24:04.556Z,21.72
2017-04-22T04:25:10.249Z,22.25
2017-04-22T04:26:15.749Z,20.07
2017-04-22T04:27:22.138Z,22.32
2017-04-22T04:28:26.870Z,19.98
2017-04-22T04:29:32.419Z,20.53
2017-04-22T04:30:38.003Z,19.73
2017-04-22T04:31:44.228Z,25.35
2017-04-22T04:32:49.896Z,21.38
2017-04-22T04:33:55.410Z,19.38
2017-04-22T04:35:00.828Z,21.03
2017-04-22T04:36:06.515Z,20.18
2017-04-22T04:37:11.856Z,19.97
2017-04-22T04:38:18.275Z,24.32
2017-04-22T04:39:22.981Z,19.65
2017-04-22T04:40:29.312Z,22.13
2017-04-22T04:41:35.667Z,19.82
2017-04-22T04:42:40.636Z,20.15
2017-04-22T04:43:46.032Z,19.68
2017-04-22T04:44:52.308Z,19.50
2017-04-22T04:45:58.040Z,21.05
2017-04-22T04:47:03.772Z,18.08
2017-04-22T04:48:09.425Z,18.23
2017-04-22T04:49:15.197Z,21.03
2017-04-22T04:50:20.396Z,17.68
2017-04-22T04:51:26.046Z,19.32
2017-04-22T04:52:31.835Z,19.12
2017-04-22T04:53:37.232Z,17.87
2017-04-22T04:54:42.873Z,19.35
2017-04-22T04:55:48.442Z,19.67
2017-04-22T04:56:53.862Z,18.78
2017-04-22T04:57:58.623Z,18.50
2017-04-22T04:59:04.972Z,17.47
2017-04-22T05:00:09.789Z,18.78
2017-04-22T05:01:16.285Z,21.20
2017-04-22T05:02:21.818Z,21.77
2017-04-22T05:03:26.548Z,18.20
2017-04-22T05:04:32.060Z,17.70
2017-04-22T05:05:37.694Z,21.05
2017-04-22T05:06:43.142Z,21.80
2017-04-22T05:07:48.596Z,20.10
2017-04-22T05:08:55.946Z,21.85
2017-04-22T05:10:01.565Z,18.68
2017-04-22T05:11:07.301Z,17.78
2017-04-22T05:12:12.187Z,19.17
2017-04-22T05:13:18.280Z,22.85
2017-04-22T05:14:23.296Z,19.62
2017-04-22T05:15:28.716Z,19.47
2017-04-22T05:16:34.340Z,21.75
2017-04-22T05:17:39.953Z,19.00
2017-04-22T05:18:45.569Z,19.95
2017-04-22T05:19:52.178Z,19.68
2017-04-22T05:20:57.746Z,22.45
2017-04-22T05:22:03.266Z,19.77
2017-04-22T05:23:08.925Z,21.15
2017-04-22T05:24:14.451Z,19.58
2017-04-22T05:25:21.031Z,21.25
2017-04-22T05:26:26.627Z,22.32
2017-04-22T05:27:32.479Z,21.10
2017-04-22T05:28:37.633Z,19.97
2017-04-22T05:29:43.056Z,20.67
2017-04-22T05:30:48.669Z,20.90
2017-04-22T05:31:54.192Z,23.32
2017-04-22T05:32:59.850Z,19.45
2017-04-22T05:34:05.401Z,21.30
2017-04-22T05:35:11.744Z,23.03
2017-04-22T05:36:16.755Z,19.38
2017-04-22T05:37:22.852Z,20.50
2017-04-22T05:38:27.532Z,19.63
2017-04-22T05:39:33.793Z,22.05
2017-04-22T05:40:38.687Z,20.20
2017-04-22T05:41:44.385Z,20.60
2017-04-22T05:42:50.005Z,20.30
2017-04-22T05:43:55.548Z,20.47
2017-04-22T05:45:00.390Z,22.17
2017-04-22T05:46:06.586Z,24.30
2017-04-22T05:47:11.533Z,23.47
2017-04-22T05:48:17.178Z,21.68
2017-04-22T05:49:22.783Z,21.87
2017-04-22T05:50:28.296Z,21.42
2017-04-22T05:51:33.825Z,22.13
2017-04-22T05:52:39.243Z,23.47
2017-04-22T05:53:45.533Z,23.83
2017-04-22T05:54:51.859Z,24.17
2017-04-22T05:55:57.059Z,22.33
2017-04-22T05:57:03.497Z,22.13
2017-04-22T05:58:09.198Z,20.90
2017-04-22T05:59:15.368Z,21.02
2017-04-22T06:00:20.233Z,25.67
2017-04-22T06:01:25.801Z,22.03
2017-04-22T06:02:31.224Z,21.40
2017-04-22T06:03:36.723Z,20.35
2017-04-22T06:04:43.113Z,22.55
2017-04-22T06:05:48.780Z,24.85
2017-04-22T06:06:55.071Z,21.53
2017-04-22T06:08:00.524Z,24.22
2017-04-22T06:09:08.010Z,22.78
2017-04-22T06:10:12.880Z,22.50
2017-04-22T06:11:18.420Z,19.43
2017-04-22T06:12:24.816Z,22.27
2017-04-22T06:13:29.604Z,22.87
2017-04-22T06:14:35.220Z,21.60
2017-04-22T06:15:41.521Z,20.97
2017-04-22T06:16:46.301Z,21.12
2017-04-22T06:17:52.714Z,23.18
2017-04-22T06:18:57.505Z,21.17
2017-04-22T06:20:03.956Z,22.65
2017-04-22T06:21:08.701Z,21.60
2017-04-22T06:22:15.049Z,21.23
2017-04-22T06:23:19.823Z,22.48
2017-04-22T06:24:25.532Z,20.85
2017-04-22T06:25:31.088Z,22.88
2017-04-22T06:26:36.492Z,23.10
2017-04-22T06:27:42.133Z,22.08
2017-04-22T06:28:48.369Z,21.72
2017-04-22T06:29:53.331Z,20.47
2017-04-22T06:30:58.805Z,19.77
2017-04-22T06:32:05.226Z,20.48
2017-04-22T06:33:09.948Z,19.62
2017-04-22T06:34:15.493Z,24.20
2017-04-22T06:35:21.032Z,21.48
2017-04-22T06:36:26.696Z,22.65
2017-04-22T06:37:32.187Z,18.38
2017-04-22T06:38:38.362Z,21.70
2017-04-22T06:39:44.031Z,23.95
2017-04-22T06:40:49.511Z,27.35
2017-04-22T06:41:55.860Z,22.23
2017-04-22T06:43:00.672Z,19.70
2017-04-22T06:44:07.103Z,19.98
2017-04-22T06:45:12.662Z,20.75
2017-04-22T06:46:17.325Z,23.03
2017-04-22T06:47:23.800Z,21.12
2017-04-22T06:48:28.720Z,22.62
2017-04-22T06:49:34.333Z,23.68
2017-04-22T06:50:39.825Z,22.32
2017-04-22T06:51:45.341Z,19.00
2017-04-22T06:52:51.703Z,18.83
2017-04-22T06:53:57.463Z,18.68
2017-04-22T06:55:02.204Z,21.78
2017-04-22T06:56:07.593Z,21.00
2017-04-22T06:57:13.272Z,20.53
2017-04-22T06:58:20.738Z,19.72
2017-04-22T06:59:25.453Z,21.43
2017-04-22T07:00:31.108Z,19.43
2017-04-22T07:01:37.427Z,20.88
2017-04-22T07:02:43.641Z,18.45
2017-04-22T07:03:48.921Z,25.13
2017-04-22T07:04:54.612Z,22.02
2017-04-22T07:06:00.929Z,20.10
2017-04-22T07:07:05.605Z,22.93
2017-04-22T07:08:11.108Z,18.83
2017-04-22T07:09:17.561Z,17.87
2017-04-22T07:10:22.435Z,21.38
2017-04-22T07:11:27.951Z,22.42
2017-04-22T07:12:33.577Z,21.80
2017-04-22T07:13:39.993Z,22.02
2017-04-22T07:14:45.644Z,18.72
2017-04-22T07:15:50.310Z,41.38
2017-04-22T07:16:56.659Z,19.22
2017-04-22T07:18:01.449Z,19.82
2017-04-22T07:19:07.647Z,32.80
2017-04-22T07:20:12.420Z,21.10
2017-04-22T07:21:18.006Z,22.77
2017-04-22T07:22:23.720Z,22.32
2017-04-22T07:23:29.287Z,20.02
2017-04-22T07:24:35.729Z,19.73
2017-04-22T07:25:41.340Z,20.08
2017-04-22T07:26:47.064Z,19.00
2017-04-22T07:27:53.428Z,21.10
2017-04-22T07:28:59.014Z,20.02
2017-04-22T07:30:03.919Z,19.53
2017-04-22T07:31:09.398Z,18.95
2017-04-22T07:32:15.100Z,18.83
2017-04-22T07:33:20.377Z,18.95
2017-04-22T07:34:25.868Z,20.03
2017-04-22T07:35:31.536Z,19.25
2017-04-22T07:36:38.024Z,19.45
2017-04-22T07:37:42.893Z,21.40
2017-04-22T07:38:49.517Z,19.17
2017-04-22T07:39:55.755Z,20.13
2017-04-22T07:41:00.642Z,20.50
2017-04-22T07:42:06.970Z,21.12
2017-04-22T07:43:12.608Z,19.47
2017-04-22T07:44:18.156Z,21.23
2017-04-22T07:45:24.500Z,18.62
2017-04-22T07:46:29.378Z,20.78
2017-04-22T07:47:34.205Z,23.17
2017-04-22T07:48:39.691Z,20.02
2017-04-22T07:49:45.278Z,23.20
2017-04-22T07:50:51.614Z,23.02
2017-04-22T07:51:56.383Z,21.77
2017-04-22T07:53:01.976Z,21.10
2017-04-22T07:54:07.550Z,23.70
2017-04-22T07:55:13.097Z,24.77
2017-04-22T07:56:18.602Z,22.10
2017-04-22T07:57:24.299Z,23.55
2017-04-22T07:58:29.805Z,21.55
2017-04-22T07:59:36.054Z,25.37
2017-04-22T08:00:40.802Z,22.08
2017-04-22T08:01:46.284Z,22.62
2017-04-22T08:02:51.773Z,21.60
2017-04-22T08:03:56.556Z,23.02
2017-04-22T08:05:02.926Z,23.45
2017-04-22T08:06:07.849Z,24.17
2017-04-22T08:07:14.141Z,22.42
2017-04-22T08:08:18.927Z,22.17
2017-04-22T08:09:26.207Z,22.03
2017-04-22T08:10:31.012Z,18.50
2017-04-22T08:11:37.995Z,7.30
2017-04-22T08:12:43.154Z,2.77
2017-04-22T08:13:48.690Z,1.20
2017-04-22T08:14:54.133Z,1.37
2017-04-22T08:16:00.461Z,0.98
2017-04-22T08:17:06.877Z,0.72
2017-04-22T08:18:12.104Z,0.73
2017-04-22T08:19:18.330Z,1.22
2017-04-22T08:20:24.367Z,1.28
2017-04-22T08:21:29.175Z,0.60
2017-04-22T08:22:34.656Z,0.57
2017-04-22T08:23:41.036Z,1.23
2017-04-22T08:24:46.462Z,0.82
2017-04-22T08:25:52.428Z,0.90
2017-04-22T08:26:57.217Z,1.25
2017-04-22T08:28:03.021Z,0.87
2017-04-22T08:29:08.223Z,0.72
2017-04-22T08:30:13.632Z,2.97
2017-04-22T08:31:19.389Z,0.97
2017-04-22T08:32:24.839Z,0.70
2017-04-22T08:33:30.387Z,1.50
2017-04-22T08:34:35.996Z,1.88
2017-04-22T08:35:41.540Z,0.62
2017-04-22T08:36:48.052Z,0.65
2017-04-22T08:37:53.716Z,0.90
2017-04-22T08:38:59.217Z,3.43
2017-04-22T08:40:04.697Z,0.67
2017-04-22T08:41:10.198Z,1.50
2017-04-22T08:42:17.715Z,1.30
2017-04-22T08:43:23.272Z,2.33
2017-04-22T08:44:28.056Z,1.15
2017-04-22T08:45:33.675Z,1.78
2017-04-22T08:46:39.301Z,1.53
2017-04-22T08:47:44.965Z,0.60
2017-04-22T08:48:51.193Z,0.80
2017-04-22T08:49:56.880Z,0.90
2017-04-22T08:51:02.532Z,0.65
2017-04-22T08:52:07.275Z,0.50
2017-04-22T08:53:12.977Z,1.00
2017-04-22T08:54:19.308Z,0.58
2017-04-22T08:55:24.849Z,0.60
2017-04-22T08:56:30.439Z,0.43
2017-04-22T08:57:35.280Z,1.18
2017-04-22T08:58:40.902Z,0.93
2017-04-22T08:59:46.571Z,1.37
2017-04-22T09:00:52.741Z,1.42
2017-04-22T09:01:57.636Z,13.18
2017-04-22T09:03:03.229Z,12.72
2017-04-22T09:04:08.892Z,7.45
2017-04-22T09:05:15.411Z,1.57
2017-04-22T09:06:20.931Z,1.32
2017-04-22T09:07:25.749Z,0.95
2017-04-22T09:08:31.248Z,1.22
2017-04-22T09:09:38.826Z,0.78
2017-04-22T09:10:43.610Z,1.57
2017-04-22T09:11:49.283Z,0.70
2017-04-22T09:12:54.765Z,0.82
2017-04-22T09:14:00.459Z,1.18
2017-04-22T09:15:06.247Z,1.13
2017-04-22T09:16:11.512Z,1.27
2017-04-22T09:17:17.050Z,0.72
2017-04-22T09:18:22.689Z,0.95
2017-04-22T09:19:28.192Z,0.50
2017-04-22T09:20:33.841Z,1.43
2017-04-22T09:21:39.441Z,1.27
2017-04-22T09:22:45.074Z,0.90
2017-04-22T09:23:50.660Z,0.65
2017-04-22T09:24:57.014Z,1.45
2017-04-22T09:26:01.925Z,1.98
2017-04-22T09:27:08.177Z,3.08
2017-04-22T09:28:13.895Z,1.10
2017-04-22T09:29:18.632Z,0.88
2017-04-22T09:30:24.264Z,2.15
2017-04-22T09:31:30.553Z,0.80
2017-04-22T09:32:35.396Z,1.18
2017-04-22T09:33:40.993Z,0.98
2017-04-22T09:34:46.477Z,0.78
2017-04-22T09:35:52.100Z,0.72
2017-04-22T09:36:57.684Z,0.90
2017-04-22T09:38:03.332Z,1.62
2017-04-22T09:39:08.810Z,1.65
2017-04-22T09:40:15.123Z,3.23
2017-04-22T09:41:20.760Z,1.20
2017-04-22T09:42:25.812Z,1.77
2017-04-22T09:43:31.187Z,0.55
2017-04-22T09:44:37.501Z,1.10
2017-04-22T09:45:43.164Z,1.28
2017-04-22T09:46:47.909Z,0.90
2017-04-22T09:47:53.649Z,1.08
2017-04-22T09:48:59.678Z,0.87
2017-04-22T09:50:04.474Z,1.00
2017-04-22T09:51:10.142Z,1.12
2017-04-22T09:52:16.580Z,1.77
2017-04-22T09:53:22.117Z,0.68
2017-04-22T09:54:26.947Z,1.03
2017-04-22T09:55:32.608Z,1.18
2017-04-22T09:56:38.105Z,1.02
2017-04-22T09:57:43.592Z,1.82
2017-04-22T09:58:48.349Z,3.48
2017-04-22T09:59:53.814Z,1.58
2017-04-22T10:00:59.313Z,1.07
2017-04-22T10:02:04.142Z,1.18
2017-04-22T10:03:09.673Z,1.62
2017-04-22T10:04:15.206Z,1.38
2017-04-22T10:05:20.111Z,1.75
2017-04-22T10:06:25.716Z,0.78
2017-04-22T10:07:31.344Z,0.77
2017-04-22T10:08:36.804Z,2.57
2017-04-22T10:09:43.245Z,0.68
2017-04-22T10:10:48.486Z,1.53
2017-04-22T10:11:53.596Z,1.12
2017-04-22T10:12:59.217Z,0.70
2017-04-22T10:14:04.815Z,0.80
2017-04-22T10:15:11.227Z,3.32
2017-04-22T10:16:16.836Z,0.85
2017-04-22T10:17:21.624Z,1.02
2017-04-22T10:18:27.942Z,1.43
2017-04-22T10:19:33.405Z,1.78
2017-04-22T10:20:39.105Z,1.52
2017-04-22T10:21:43.915Z,1.47
2017-04-22T10:22:50.362Z,0.73
2017-04-22T10:23:55.077Z,0.92
2017-04-22T10:25:00.717Z,1.55
2017-04-22T10:26:06.319Z,1.10
2017-04-22T10:27:11.795Z,1.33
2017-04-22T10:28:17.308Z,1.40
2017-04-22T10:29:22.800Z,1.12
2017-04-22T10:30:27.733Z,1.30
2017-04-22T10:31:33.985Z,1.58
2017-04-22T10:32:38.719Z,1.18
2017-04-22T10:33:45.105Z,2.00
2017-04-22T10:34:49.910Z,1.18
2017-04-22T10:35:55.417Z,1.28
2017-04-22T10:37:01.861Z,2.83
2017-04-22T10:38:08.265Z,1.43
2017-04-22T10:39:13.025Z,1.70
2017-04-22T10:40:18.616Z,1.55
2017-04-22T10:41:24.248Z,1.22
2017-04-22T10:42:29.841Z,1.87
2017-04-22T10:43:35.312Z,2.53
2017-04-22T10:44:41.697Z,1.63
2017-04-22T10:45:47.285Z,2.47
2017-04-22T10:46:51.961Z,1.65
2017-04-22T10:47:57.697Z,2.15
2017-04-22T10:49:03.889Z,2.25
2017-04-22T10:50:08.680Z,2.32
2017-04-22T10:51:14.124Z,3.20
2017-04-22T10:52:19.744Z,3.17
2017-04-22T10:53:25.376Z,3.75
2017-04-22T10:54:31.745Z,3.68
2017-04-22T10:55:37.308Z,3.68
2017-04-22T10:56:42.032Z,2.67
2017-04-22T10:57:47.649Z,2.75
2017-04-22T10:58:53.953Z,2.57
2017-04-22T10:59:58.777Z,2.55
2017-04-22T11:01:04.353Z,2.97
2017-04-22T11:02:09.850Z,4.28
2017-04-22T11:03:15.401Z,4.72
2017-04-22T11:04:21.066Z,3.73
2017-04-22T11:05:27.250Z,5.52
2017-04-22T11:06:32.977Z,2.62
2017-04-22T11:07:37.733Z,3.10
2017-04-22T11:08:43.969Z,3.42
2017-04-22T11:09:50.521Z,2.50
2017-04-22T11:10:55.333Z,3.65
2017-04-22T11:12:00.931Z,4.65
2017-04-22T11:13:06.462Z,4.20
2017-04-22T11:14:12.701Z,4.48
2017-04-22T11:15:17.547Z,3.47
2017-04-22T11:16:23.181Z,2.82
2017-04-22T11:17:28.702Z,5.23
2017-04-22T11:18:34.556Z,6.22
2017-04-22T11:19:39.874Z,3.30
2017-04-22T11:20:46.417Z,5.45
2017-04-22T11:21:51.310Z,5.77
2017-04-22T11:22:56.708Z,5.55
2017-04-22T11:24:02.194Z,5.60
2017-04-22T11:25:07.773Z,4.60
2017-04-22T11:26:12.675Z,6.65
2017-04-22T11:27:18.741Z,4.83
2017-04-22T11:28:23.589Z,4.80
2017-04-22T11:29:29.104Z,4.22
2017-04-22T11:30:35.356Z,4.60
2017-04-22T11:31:40.322Z,6.05
2017-04-22T11:32:45.820Z,5.80
2017-04-22T11:33:51.461Z,5.78
2017-04-22T11:34:56.193Z,5.87
2017-04-22T11:36:02.588Z,3.97
2017-04-22T11:37:09.062Z,5.65
2017-04-22T11:38:14.585Z,4.45
2017-04-22T11:39:20.221Z,4.22
2017-04-22T11:40:24.890Z,4.62
2017-04-22T11:41:31.357Z,4.47
2017-04-22T11:42:36.941Z,5.93
2017-04-22T11:43:41.765Z,4.95
2017-04-22T11:44:48.200Z,4.52
2017-04-22T11:45:53.068Z,8.48
2017-04-22T11:46:58.677Z,4.57
2017-04-22T11:48:05.282Z,5.00
2017-04-22T11:49:10.778Z,4.97
2017-04-22T11:50:16.440Z,6.60
2017-04-22T11:51:22.037Z,8.03
2017-04-22T11:52:27.630Z,8.67
2017-04-22T11:53:33.181Z,5.22
2017-04-22T11:54:38.771Z,5.07
2017-04-22T11:55:44.348Z,4.70
2017-04-22T11:56:50.732Z,4.08
2017-04-22T11:57:55.718Z,5.87
2017-04-22T11:59:01.200Z,5.17
2017-04-22T12:00:07.576Z,5.67
2017-04-22T12:01:12.560Z,6.48
2017-04-22T12:02:18.160Z,5.35
2017-04-22T12:03:23.696Z,6.33
2017-04-22T12:04:29.346Z,7.02
2017-04-22T12:05:34.682Z,5.08
2017-04-22T12:06:40.075Z,4.32
2017-04-22T12:07:46.330Z,4.60
2017-04-22T12:08:51.357Z,5.18
2017-04-22T12:09:57.821Z,8.05
2017-04-22T12:11:02.552Z,5.87
2017-04-22T12:12:08.194Z,3.82
2017-04-22T12:13:14.456Z,5.32
2017-04-22T12:14:19.940Z,8.18
2017-04-22T12:15:24.805Z,6.20
2017-04-22T12:16:30.558Z,8.40
2017-04-22T12:17:36.817Z,5.40
2017-04-22T12:18:41.601Z,6.68
2017-04-22T12:19:47.220Z,5.37
2017-04-22T12:20:52.759Z,6.80
2017-04-22T12:21:57.434Z,7.88
2017-04-22T12:23:03.100Z,6.38
2017-04-22T12:24:08.681Z,9.30
2017-04-22T12:25:14.317Z,9.53
2017-04-22T12:26:19.896Z,7.22
2017-04-22T12:27:25.314Z,7.33
2017-04-22T12:28:30.097Z,5.07
2017-04-22T12:29:35.665Z,6.42
2017-04-22T12:30:40.964Z,7.03
2017-04-22T12:31:46.504Z,6.50
2017-04-22T12:32:52.781Z,8.07
2017-04-22T12:33:57.582Z,7.55
2017-04-22T12:35:03.162Z,6.40
2017-04-22T12:36:09.429Z,5.77
2017-04-22T12:37:14.140Z,7.80
2017-04-22T12:38:19.658Z,5.57
2017-04-22T12:39:25.177Z,8.10
2017-04-22T12:40:30.799Z,7.02
2017-04-22T12:41:37.038Z,9.40
2017-04-22T12:42:42.775Z,7.22
2017-04-22T12:43:48.103Z,8.37
2017-04-22T12:44:53.767Z,6.67
2017-04-22T12:45:59.140Z,8.08
2017-04-22T12:47:05.556Z,8.63
2017-04-22T12:48:10.584Z,7.03
2017-04-22T12:49:15.906Z,9.35
2017-04-22T12:50:22.193Z,7.83
2017-04-22T12:51:26.917Z,6.72
2017-04-22T12:52:32.480Z,7.87
2017-04-22T12:53:38.121Z,7.02
2017-04-22T12:54:44.409Z,7.33
2017-04-22T12:55:50.102Z,8.27
2017-04-22T12:56:54.954Z,9.12
2017-04-22T12:58:00.524Z,8.15
2017-04-22T12:59:06.190Z,8.08
2017-04-22T13:00:11.771Z,6.40
2017-04-22T13:01:18.137Z,9.67
2017-04-22T13:02:23.686Z,6.88
2017-04-22T13:03:28.425Z,7.55
2017-04-22T13:04:34.084Z,6.53
2017-04-22T13:05:39.560Z,7.82
2017-04-22T13:06:45.948Z,10.42
2017-04-22T13:07:50.734Z,8.67
2017-04-22T13:08:56.438Z,7.48
2017-04-22T13:10:03.509Z,8.90
2017-04-22T13:11:08.317Z,5.72
2017-04-22T13:12:13.919Z,10.22
2017-04-22T13:13:20.002Z,6.45
2017-04-22T13:14:25.613Z,4.73
2017-04-22T13:15:30.484Z,6.80
2017-04-22T13:16:36.730Z,6.33
2017-04-22T13:17:41.428Z,6.32
2017-04-22T13:18:48.512Z,7.43
2017-04-22T13:19:53.649Z,5.80
2017-04-22T13:20:59.266Z,5.40
2017-04-22T13:22:05.577Z,5.87
2017-04-22T13:23:11.020Z,7.75
2017-04-22T13:24:15.801Z,13.32
2017-04-22T13:25:21.421Z,6.30
2017-04-22T13:26:27.642Z,6.12
2017-04-22T13:27:33.281Z,4.92
2017-04-22T13:28:38.074Z,5.87
2017-04-22T13:29:43.585Z,5.55
2017-04-22T13:30:49.349Z,5.85
2017-04-22T13:31:55.466Z,5.25
2017-04-22T13:33:00.152Z,5.15
2017-04-22T13:34:05.752Z,5.12
2017-04-22T13:35:11.265Z,8.00
2017-04-22T13:36:16.893Z,9.43
2017-04-22T13:37:22.450Z,5.47
2017-04-22T13:38:28.758Z,6.57
2017-04-22T13:39:33.470Z,7.47
2017-04-22T13:40:38.926Z,5.70
2017-04-22T13:41:44.408Z,5.05
2017-04-22T13:42:50.054Z,6.05
2017-04-22T13:43:55.417Z,9.57
2017-04-22T13:45:01.028Z,7.97
2017-04-22T13:46:07.402Z,4.20
2017-04-22T13:47:12.188Z,7.62
2017-04-22T13:48:17.916Z,4.98
2017-04-22T13:49:23.279Z,4.28
2017-04-22T13:50:28.786Z,9.63
2017-04-22T13:51:35.056Z,4.15
2017-04-22T13:52:40.748Z,7.78
2017-04-22T13:53:45.588Z,6.43
2017-04-22T13:54:51.185Z,10.37
2017-04-22T13:55:57.597Z,8.67
2017-04-22T13:57:02.429Z,6.22
2017-04-22T13:58:07.989Z,6.23
2017-04-22T13:59:14.350Z,9.45
2017-04-22T14:00:19.037Z,6.52
2017-04-22T14:01:24.494Z,3.75
2017-04-22T14:02:31.421Z,6.78
2017-04-22T14:03:36.984Z,4.43
2017-04-22T14:04:43.243Z,6.68
2017-04-22T14:05:48.941Z,6.00
2017-04-22T14:06:54.384Z,6.62
2017-04-22T14:08:00.710Z,5.12
2017-04-22T14:09:05.616Z,7.77
2017-04-22T14:10:12.615Z,10.40
2017-04-22T14:11:18.182Z,8.23
2017-04-22T14:12:22.964Z,7.60
2017-04-22T14:13:28.517Z,8.92
2017-04-22T14:14:34.125Z,7.37
2017-04-22T14:15:39.745Z,5.92
2017-04-22T14:16:45.977Z,9.17